Time;durP1;ratioP1;P1;durP2;ratioP2;P2;SDS_P1;SDS_P2;PMS_P1;PMS_P2;Temp;Humidity;BMP_temperature;BMP_pressure;BME280_temperature;BME280_humidity;BME280_pressure;Samples;Min_cycle;Max_cycle;Signal;HPM_P1;HPM_P2
2022/01/05 00:01:16;;;;;;;4.18;3.78;;;6.80;99.90;;;;;;5056454;28;20039;-48
2022/01/05 00:03:41;;;;;;;5.25;3.67;;;6.80;99.90;;;;;;5074744;28;20033;-54
2022/01/05 00:06:07;;;;;;;4.63;3.60;;;6.80;99.90;;;;;;5074348;28;20423;-51
2022/01/05 00:08:32;;;;;;;3.92;3.53;;;6.80;99.90;;;;;;5074340;28;20028;-47
2022/01/05 00:10:58;;;;;;;4.50;4.10;;;6.80;99.90;;;;;;5073662;28;20033;-46
2022/01/05 00:13:23;;;;;;;4.18;3.78;;;6.80;99.90;;;;;;5073848;28;20024;-49
2022/01/05 00:15:49;;;;;;;4.72;4.18;;;6.80;99.90;;;;;;5073760;28;20385;-48
2022/01/05 00:18:15;;;;;;;4.60;3.53;;;6.90;99.90;;;;;;5073794;28;20039;-46
2022/01/05 00:20:41;;;;;;;4.20;3.28;;;6.80;99.90;;;;;;5055340;28;20056;-48
2022/01/05 00:23:06;;;;;;;12.38;3.42;;;6.80;99.90;;;;;;5073397;28;20025;-46
2022/01/05 00:25:32;;;;;;;3.88;3.22;;;6.80;99.90;;;;;;5073576;28;20023;-47
2022/01/05 00:27:58;;;;;;;3.63;2.92;;;6.80;99.90;;;;;;5073584;28;20025;-47
2022/01/05 00:30:24;;;;;;;3.95;3.60;;;6.80;99.90;;;;;;5072780;28;20024;-50
2022/01/05 00:32:49;;;;;;;5.00;3.67;;;6.80;99.90;;;;;;5073216;28;20099;-50
2022/01/05 00:35:15;;;;;;;4.30;3.10;;;6.80;99.90;;;;;;5073821;28;20157;-51
2022/01/05 00:37:40;;;;;;;3.75;3.38;;;6.80;99.90;;;;;;5073210;28;20050;-48
2022/01/05 00:40:06;;;;;;;6.25;4.30;;;6.80;99.90;;;;;;5072993;28;20099;-46
2022/01/05 00:42:32;;;;;;;5.22;4.18;;;6.80;99.90;;;;;;5073299;28;20063;-50
2022/01/05 00:44:58;;;;;;;6.07;4.30;;;6.80;99.90;;;;;;5073270;28;20068;-49
2022/01/05 00:47:24;;;;;;;5.80;3.75;;;6.80;99.90;;;;;;5073190;28;20107;-50
2022/01/05 00:49:49;;;;;;;4.82;4.38;;;6.80;99.90;;;;;;5072733;28;20031;-52
2022/01/05 00:52:15;;;;;;;4.90;4.05;;;6.80;99.90;;;;;;5081073;22;20048;-48
2022/01/05 00:54:41;;;;;;;5.65;4.97;;;6.80;99.90;;;;;;5035388;28;20519;-52
2022/01/05 00:57:06;;;;;;;5.47;4.03;;;6.70;99.90;;;;;;5052889;28;20404;-47
2022/01/05 00:59:32;;;;;;;4.70;4.07;;;6.70;99.90;;;;;;5034685;28;20119;-51
2022/01/05 01:01:58;;;;;;;4.57;4.18;;;6.70;99.90;;;;;;5052683;28;20051;-53
2022/01/05 01:04:24;;;;;;;5.50;4.18;;;6.70;99.90;;;;;;5052743;28;20512;-46
2022/01/05 01:06:49;;;;;;;5.28;4.50;;;6.70;99.90;;;;;;5052782;28;20025;-47
2022/01/05 01:09:15;;;;;;;27.20;15.50;;;6.70;99.90;;;;;;5034472;28;20507;-48
2022/01/05 01:11:40;;;;;;;5.50;4.25;;;6.70;99.90;;;;;;5052394;28;20435;-47
2022/01/05 01:14:06;;;;;;;4.60;4.20;;;6.80;99.90;;;;;;5052694;28;20021;-47
2022/01/05 01:16:32;;;;;;;4.72;4.00;;;6.70;99.90;;;;;;5052484;28;20033;-48
2022/01/05 01:18:57;;;;;;;6.25;3.90;;;6.70;99.90;;;;;;5052414;28;20031;-54
2022/01/05 01:21:23;;;;;;;3.97;3.63;;;6.70;99.90;;;;;;5052203;28;20096;-50
2022/01/05 01:23:55;;;;;;;6.22;4.03;;;6.70;99.90;;;;;;5052720;28;20462;-50
2022/01/05 01:26:22;;;;;;;6.07;3.22;;;6.70;99.90;;;;;;5052296;28;20416;-51
2022/01/05 01:28:48;;;;;;;4.80;4.15;;;6.70;99.90;;;;;;5052514;28;20035;-48
2022/01/05 01:31:13;;;;;;;4.75;4.18;;;6.80;99.90;;;;;;5051881;28;20388;-53
2022/01/05 01:33:39;;;;;;;4.65;3.72;;;6.70;99.90;;;;;;5052198;28;20025;-48
2022/01/05 01:36:05;;;;;;;5.85;3.50;;;6.70;99.90;;;;;;5052221;28;20021;-47
2022/01/05 01:38:30;;;;;;;3.95;3.65;;;6.80;99.90;;;;;;5052061;28;20106;-49
2022/01/05 01:40:56;;;;;;;6.43;3.85;;;6.80;99.90;;;;;;5051566;28;20029;-49
2022/01/05 01:43:21;;;;;;;5.18;4.18;;;6.70;99.90;;;;;;5052138;28;20266;-48
2022/01/05 01:45:47;;;;;;;4.93;4.10;;;6.70;99.90;;;;;;5052279;28;20039;-45
2022/01/05 01:48:12;;;;;;;4.47;3.90;;;6.70;99.90;;;;;;5034089;28;20021;-48
2022/01/05 01:50:38;;;;;;;7.32;3.92;;;6.70;99.90;;;;;;5051411;28;20056;-51
2022/01/05 01:53:03;;;;;;;4.55;4.15;;;6.80;99.90;;;;;;5051893;28;20040;-50
2022/01/05 01:55:29;;;;;;;6.20;3.63;;;6.80;99.90;;;;;;5051695;28;20025;-49
2022/01/05 01:57:55;;;;;;;4.38;2.58;;;6.80;99.90;;;;;;5052162;28;20025;-48
2022/01/05 02:00:21;;;;;;;4.90;2.83;;;6.80;99.90;;;;;;5051305;28;20039;-51
2022/01/05 02:02:47;;;;;;;3.65;1.90;;;6.80;99.90;;;;;;5051633;28;20068;-52
2022/01/05 02:05:13;;;;;;;3.30;1.95;;;6.80;99.90;;;;;;5051659;28;20744;-48
2022/01/05 02:07:39;;;;;;;6.22;2.28;;;6.90;99.90;;;;;;5051729;28;20393;-46
2022/01/05 02:10:06;;;;;;;2.55;0.90;;;6.90;99.90;;;;;;5051309;28;20017;-47
2022/01/05 02:12:32;;;;;;;3.40;0.90;;;6.90;99.90;;;;;;5051464;28;20052;-49
2022/01/05 02:14:57;;;;;;;1.17;0.77;;;6.90;99.90;;;;;;5051586;28;20496;-47
2022/01/05 02:17:24;;;;;;;1.02;0.90;;;7.00;99.90;;;;;;5051661;28;20029;-47
2022/01/05 02:19:50;;;;;;;3.15;1.00;;;7.00;99.90;;;;;;5051618;28;20159;-51
2022/01/05 02:22:16;;;;;;;0.80;0.80;;;7.00;99.90;;;;;;5052859;28;20060;-47
2022/01/05 02:24:47;;;;;;;2.25;0.73;;;6.90;99.90;;;;;;5053265;28;20203;-47
2022/01/05 02:27:13;;;;;;;2.20;0.90;;;6.90;99.90;;;;;;5052519;28;20431;-51
2022/01/05 02:29:39;;;;;;;0.73;0.73;;;7.00;99.90;;;;;;5051310;28;20100;-48
2022/01/05 02:32:05;;;;;;;2.97;0.80;;;7.00;99.90;;;;;;5051515;28;20532;-52
2022/01/05 02:34:30;;;;;;;0.90;0.90;;;6.90;99.90;;;;;;5051625;28;20385;-48
2022/01/05 02:36:56;;;;;;;1.88;1.27;;;6.70;99.90;;;;;;5051526;28;20029;-47
2022/01/05 02:39:21;;;;;;;0.80;0.80;;;6.40;99.90;;;;;;5051106;28;20025;-50
2022/01/05 02:41:46;;;;;;;0.70;0.70;;;6.20;99.90;;;;;;5051406;28;20479;-50
2022/01/05 02:44:12;;;;;;;0.82;0.82;;;5.90;99.90;;;;;;5051397;28;20032;-48
2022/01/05 02:46:38;;;;;;;1.08;1.08;;;5.80;99.90;;;;;;5033463;28;20132;-47
2022/01/05 02:49:04;;;;;;;0.80;0.80;;;5.70;99.90;;;;;;5051052;28;20028;-50
2022/01/05 02:51:30;;;;;;;0.70;0.70;;;5.60;99.90;;;;;;5050949;28;20540;-46
2022/01/05 02:53:56;;;;;;;1.08;0.90;;;5.40;99.90;;;;;;5050922;28;20067;-51
2022/01/05 02:56:22;;;;;;;1.25;1.15;;;5.40;99.90;;;;;;5055128;28;20056;-51
2022/01/05 02:58:47;;;;;;;2.28;1.17;;;5.30;99.90;;;;;;5055101;28;20021;-50
2022/01/05 03:01:13;;;;;;;0.90;0.90;;;5.30;99.90;;;;;;5054753;28;20038;-50
2022/01/05 03:03:38;;;;;;;1.23;0.90;;;5.30;99.90;;;;;;5054903;28;20112;-52
2022/01/05 03:06:04;;;;;;;2.13;1.33;;;5.30;99.90;;;;;;5055099;28;20045;-49
2022/01/05 03:08:30;;;;;;;1.23;1.15;;;5.30;99.90;;;;;;5037214;28;20025;-47
2022/01/05 03:10:55;;;;;;;0.93;0.80;;;5.30;99.90;;;;;;5054538;28;20032;-49
2022/01/05 03:13:23;;;;;;;1.42;1.33;;;5.20;99.90;;;;;;5054887;28;20060;-48
2022/01/05 03:15:52;;;;;;;2.70;1.13;;;5.20;99.90;;;;;;5055358;28;20021;-54
2022/01/05 03:18:18;;;;;;;1.60;1.45;;;5.20;99.90;;;;;;5054975;28;20047;-54
2022/01/05 03:20:45;;;;;;;1.50;1.40;;;5.20;99.90;;;;;;5054785;28;20370;-55
2022/01/05 03:23:11;;;;;;;3.70;1.10;;;5.20;99.90;;;;;;5036687;28;20131;-52
2022/01/05 03:25:37;;;;;;;2.25;1.33;;;5.20;99.90;;;;;;5054747;28;20025;-51
2022/01/05 03:28:03;;;;;;;0.95;0.95;;;5.10;99.90;;;;;;5054469;28;20500;-46
2022/01/05 03:30:30;;;;;;;1.10;1.00;;;5.10;99.90;;;;;;5054286;28;20509;-47
2022/01/05 03:35:28;;;;;;;1.20;1.10;;;5.10;99.90;;;;;;5054689;28;20520;-48
2022/01/05 03:37:54;;;;;;;1.02;1.02;;;5.00;99.90;;;;;;5055434;28;20033;-46
2022/01/05 03:40:20;;;;;;;1.20;1.00;;;5.00;99.90;;;;;;5036374;28;20292;-45
2022/01/05 03:42:45;;;;;;;1.55;0.90;;;5.00;99.90;;;;;;5054190;28;20083;-44
2022/01/05 03:45:11;;;;;;;0.93;0.88;;;5.10;99.90;;;;;;5036336;28;20431;-48
2022/01/05 03:47:37;;;;;;;2.97;0.90;;;5.10;99.90;;;;;;5036470;28;20457;-47
2022/01/05 03:50:03;;;;;;;0.80;0.80;;;5.10;99.90;;;;;;5053804;28;20112;-46
2022/01/05 03:52:28;;;;;;;1.80;1.42;;;5.00;99.90;;;;;;5053299;28;20068;-44
2022/01/05 03:54:54;;;;;;;1.73;0.80;;;5.00;99.90;;;;;;5054146;28;20435;-44
2022/01/05 03:57:19;;;;;;;1.17;1.00;;;4.90;99.90;;;;;;5053951;28;20075;-44
2022/01/05 03:59:45;;;;;;;2.60;1.08;;;4.90;99.90;;;;;;5053638;28;20145;-47
2022/01/05 04:02:10;;;;;;;2.38;1.00;;;4.90;99.90;;;;;;5053706;28;20496;-45
2022/01/05 04:04:36;;;;;;;2.70;1.00;;;4.90;99.90;;;;;;5035929;28;20028;-45
2022/01/05 04:07:02;;;;;;;1.88;0.82;;;5.00;99.90;;;;;;5052658;28;20033;-48
2022/01/05 04:09:28;;;;;;;1.00;0.80;;;4.90;99.90;;;;;;5053507;28;20072;-48
2022/01/05 04:11:53;;;;;;;1.95;0.73;;;4.90;99.90;;;;;;5053528;28;20029;-47
2022/01/05 04:14:19;;;;;;;3.60;0.77;;;4.90;99.90;;;;;;5053824;28;20209;-48
2022/01/05 04:16:44;;;;;;;3.83;0.90;;;4.90;99.90;;;;;;5053521;28;20540;-46
2022/01/05 04:19:10;;;;;;;0.80;0.80;;;4.90;99.90;;;;;;5053304;28;20124;-47
2022/01/05 04:21:35;;;;;;;1.40;0.90;;;4.80;99.90;;;;;;5053347;28;20554;-46
2022/01/05 04:24:01;;;;;;;0.80;0.80;;;4.90;99.90;;;;;;5035575;28;20021;-45
2022/01/05 04:26:27;;;;;;;1.38;1.27;;;4.80;99.90;;;;;;5053725;28;20072;-47
2022/01/05 04:28:52;;;;;;;9.60;1.10;;;4.90;99.90;;;;;;5053315;28;20074;-50
2022/01/05 04:31:18;;;;;;;4.28;1.10;;;4.90;99.90;;;;;;5053147;28;20036;-46
2022/01/05 04:33:43;;;;;;;1.80;0.88;;;4.90;99.90;;;;;;5053275;28;20120;-46
2022/01/05 04:36:09;;;;;;;3.95;1.20;;;4.80;99.90;;;;;;5053307;28;20088;-48
2022/01/05 04:38:34;;;;;;;3.60;1.02;;;4.80;99.90;;;;;;5053446;28;20125;-48
2022/01/05 04:41:00;;;;;;;4.90;2.05;;;4.70;99.90;;;;;;5052889;28;20029;-50
2022/01/05 04:43:25;;;;;;;2.83;1.08;;;4.80;99.90;;;;;;5053055;28;20025;-46
2022/01/05 04:45:51;;;;;;;7.38;1.50;;;4.80;99.90;;;;;;5053145;28;20017;-48
2022/01/05 04:48:17;;;;;;;1.95;1.10;;;4.80;99.90;;;;;;5053008;28;20020;-46
2022/01/05 04:50:42;;;;;;;2.08;1.20;;;4.80;99.90;;;;;;5052577;28;20028;-45
2022/01/05 04:53:11;;;;;;;3.65;1.05;;;4.80;99.90;;;;;;5052770;28;20485;-47
2022/01/05 04:55:37;;;;;;;3.00;1.52;;;4.80;99.90;;;;;;5035061;28;20017;-52
2022/01/05 04:58:02;;;;;;;1.83;1.55;;;4.80;99.90;;;;;;5053375;28;20017;-47
2022/01/05 05:00:28;;;;;;;4.57;1.50;;;4.90;99.90;;;;;;5052626;28;20594;-46
2022/01/05 05:02:53;;;;;;;2.22;2.03;;;4.80;99.90;;;;;;5052895;28;20108;-47
2022/01/05 05:05:18;;;;;;;6.25;2.25;;;4.80;99.90;;;;;;5052717;28;20029;-51
2022/01/05 05:07:44;;;;;;;8.30;2.42;;;4.80;99.90;;;;;;5052689;28;20021;-48
2022/01/05 05:10:09;;;;;;;8.75;2.25;;;4.80;99.90;;;;;;5052386;28;20076;-45
2022/01/05 05:12:35;;;;;;;5.95;2.58;;;4.80;99.90;;;;;;5052730;28;20472;-48
2022/01/05 05:15:00;;;;;;;6.43;2.40;;;4.80;99.90;;;;;;5052785;28;20117;-48
2022/01/05 05:17:26;;;;;;;8.63;2.63;;;4.80;99.90;;;;;;5052436;28;20056;-48
2022/01/05 05:19:51;;;;;;;9.40;2.17;;;4.80;99.90;;;;;;5052288;28;20385;-46
2022/01/05 05:22:17;;;;;;;4.88;2.83;;;4.80;99.90;;;;;;5052589;28;20025;-50
2022/01/05 05:24:42;;;;;;;6.93;2.00;;;4.80;99.90;;;;;;5052539;28;20500;-49
2022/01/05 05:27:08;;;;;;;6.53;1.92;;;4.80;99.90;;;;;;5053244;28;20060;-48
2022/01/05 05:29:33;;;;;;;6.90;1.90;;;4.90;99.90;;;;;;5052368;28;20109;-48
2022/01/05 05:31:59;;;;;;;7.03;2.95;;;4.90;99.90;;;;;;5034303;28;20021;-45
2022/01/05 05:34:25;;;;;;;6.75;1.60;;;4.90;99.90;;;;;;5052173;28;20079;-48
2022/01/05 05:36:51;;;;;;;1.88;1.20;;;4.80;99.90;;;;;;5052113;28;20044;-50
2022/01/05 05:39:17;;;;;;;7.85;1.83;;;4.70;99.90;;;;;;5034101;28;20124;-47
2022/01/05 05:41:42;;;;;;;4.38;1.80;;;4.70;99.90;;;;;;5051886;28;20037;-48
2022/01/05 05:44:08;;;;;;;2.85;1.30;;;4.70;99.90;;;;;;5051824;28;20489;-46
2022/01/05 05:46:34;;;;;;;1.88;1.35;;;4.70;99.90;;;;;;5051987;28;20489;-46
2022/01/05 05:49:00;;;;;;;6.32;1.42;;;4.60;99.90;;;;;;5052424;28;20079;-47
2022/01/05 05:51:25;;;;;;;7.93;1.60;;;4.60;99.90;;;;;;5051390;28;20053;-47
2022/01/05 05:53:51;;;;;;;5.15;1.63;;;4.60;99.90;;;;;;5051466;28;20068;-49
2022/01/05 05:56:16;;;;;;;6.93;1.73;;;4.60;99.90;;;;;;5051974;28;20783;-46
2022/01/05 05:58:42;;;;;;;5.50;1.13;;;4.70;99.90;;;;;;5051757;28;20036;-41
2022/01/05 06:01:07;;;;;;;5.47;1.52;;;4.60;99.90;;;;;;5051350;28;20028;-48
2022/01/05 06:03:33;;;;;;;6.30;1.55;;;4.60;99.90;;;;;;5051640;28;20029;-47
2022/01/05 06:05:58;;;;;;;4.35;1.23;;;4.70;99.90;;;;;;5051852;28;20439;-49
2022/01/05 06:08:24;;;;;;;6.82;1.63;;;4.60;99.90;;;;;;5051730;28;20053;-45
2022/01/05 06:10:49;;;;;;;8.90;1.52;;;4.60;99.90;;;;;;5051153;28;20031;-47
2022/01/05 06:13:15;;;;;;;8.27;2.22;;;4.50;99.90;;;;;;5051595;28;20289;-45
2022/01/05 06:15:40;;;;;;;5.65;1.48;;;4.50;99.90;;;;;;5051633;28;20032;-46
2022/01/05 06:18:06;;;;;;;5.80;1.80;;;4.50;99.90;;;;;;5051537;28;20017;-47
2022/01/05 06:20:31;;;;;;;6.50;1.40;;;4.50;99.90;;;;;;5051100;28;20060;-45
2022/01/05 06:22:57;;;;;;;7.63;2.13;;;4.50;99.90;;;;;;5051520;28;20392;-45
2022/01/05 06:25:22;;;;;;;8.30;1.58;;;4.50;99.90;;;;;;5051411;28;20162;-48
2022/01/05 06:27:48;;;;;;;4.95;1.95;;;4.50;99.90;;;;;;5051449;28;20029;-46
2022/01/05 06:30:13;;;;;;;2.80;1.67;;;4.40;99.90;;;;;;5051032;28;20032;-47
2022/01/05 06:32:46;;;;;;;6.38;2.03;;;4.40;99.90;;;;;;5051399;28;20029;-50
2022/01/05 06:35:13;;;;;;;7.03;1.83;;;4.40;99.90;;;;;;5051339;28;20029;-46
2022/01/05 06:37:39;;;;;;;3.70;1.38;;;4.40;99.90;;;;;;5051188;28;20028;-52
2022/01/05 06:40:06;;;;;;;5.25;1.58;;;4.40;99.90;;;;;;5050812;28;20572;-46
2022/01/05 06:42:31;;;;;;;7.22;2.00;;;4.40;99.90;;;;;;5051216;28;20083;-46
2022/01/05 06:44:57;;;;;;;4.05;1.73;;;4.30;99.90;;;;;;5033352;28;20050;-45
2022/01/05 06:47:22;;;;;;;3.10;1.33;;;4.20;99.90;;;;;;5051145;28;20383;-45
2022/01/05 06:49:48;;;;;;;3.70;1.30;;;4.20;99.90;;;;;;5050862;28;20098;-47
2022/01/05 06:52:14;;;;;;;6.80;1.92;;;4.00;99.90;;;;;;5090500;22;20124;-45
2022/01/05 06:54:40;;;;;;;6.70;1.55;;;4.00;99.90;;;;;;5073252;28;20020;-49
2022/01/05 06:57:07;;;;;;;6.30;1.85;;;4.00;99.90;;;;;;5091361;28;20051;-47
2022/01/05 06:59:33;;;;;;;5.93;1.85;;;4.00;99.90;;;;;;5090978;28;20096;-46
2022/01/05 07:01:58;;;;;;;5.32;1.67;;;4.00;99.90;;;;;;5091174;28;20128;-47
2022/01/05 07:04:24;;;;;;;5.07;1.52;;;3.90;99.90;;;;;;5091177;28;20036;-47
2022/01/05 07:06:49;;;;;;;6.95;1.75;;;3.90;99.90;;;;;;5091354;28;20020;-49
2022/01/05 07:09:15;;;;;;;8.13;2.10;;;3.90;99.90;;;;;;5072977;28;20012;-48
2022/01/05 07:11:40;;;;;;;2.22;1.63;;;3.80;99.90;;;;;;5091291;28;20028;-50
2022/01/05 07:14:06;;;;;;;5.28;1.40;;;3.80;99.90;;;;;;5091229;28;20459;-48
2022/01/05 07:16:32;;;;;;;6.75;1.75;;;3.90;99.90;;;;;;5091252;28;20386;-48
2022/01/05 07:18:57;;;;;;;4.18;1.48;;;3.90;99.90;;;;;;5091012;28;20027;-46
2022/01/05 07:21:23;;;;;;;4.70;1.48;;;3.80;99.90;;;;;;5090782;28;20036;-49
2022/01/05 07:23:48;;;;;;;8.52;2.38;;;3.70;99.90;;;;;;5090986;28;20257;-48
2022/01/05 07:26:14;;;;;;;5.38;2.15;;;3.70;99.90;;;;;;5091019;28;20055;-50
2022/01/05 07:28:39;;;;;;;4.93;1.60;;;3.60;99.90;;;;;;5090941;28;20066;-49
2022/01/05 07:31:05;;;;;;;8.73;2.33;;;3.70;99.90;;;;;;5090333;28;20031;-46
2022/01/05 07:33:31;;;;;;;8.20;2.38;;;3.70;99.90;;;;;;5090496;28;20012;-45
2022/01/05 07:35:56;;;;;;;6.38;1.58;;;3.60;99.90;;;;;;5090796;28;20099;-48
2022/01/05 07:38:22;;;;;;;4.97;1.58;;;3.70;99.90;;;;;;5091027;28;20051;-48
2022/01/05 07:40:47;;;;;;;5.55;2.25;;;3.50;99.90;;;;;;5092316;28;20020;-47
2022/01/05 07:43:13;;;;;;;4.78;2.67;;;3.50;99.90;;;;;;5094392;28;20481;-48
2022/01/05 07:45:38;;;;;;;9.43;1.83;;;3.50;99.90;;;;;;5094425;28;20024;-46
2022/01/05 07:48:05;;;;;;;7.50;1.85;;;3.40;99.90;;;;;;5094384;28;20103;-48
2022/01/05 07:50:31;;;;;;;5.53;2.00;;;3.40;99.90;;;;;;5093945;28;20446;-45
2022/01/05 07:53:00;;;;;;;5.47;1.70;;;3.30;99.90;;;;;;5075741;28;20127;-46
2022/01/05 07:55:27;;;;;;;7.45;2.35;;;3.30;99.90;;;;;;5076097;28;20024;-48
2022/01/05 07:57:52;;;;;;;6.00;2.50;;;3.30;99.90;;;;;;5094251;28;20031;-49
2022/01/05 08:00:18;;;;;;;9.18;2.45;;;3.40;99.90;;;;;;5093920;28;20024;-48
2022/01/05 08:02:43;;;;;;;10.13;2.45;;;3.40;99.90;;;;;;5093714;28;20093;-48
2022/01/05 08:05:09;;;;;;;4.97;1.80;;;3.40;99.90;;;;;;5093887;28;20032;-48
2022/01/05 08:07:35;;;;;;;8.23;2.80;;;3.40;99.90;;;;;;5075890;28;20028;-46
2022/01/05 08:10:00;;;;;;;5.93;2.40;;;3.30;99.90;;;;;;5093842;28;20026;-45
2022/01/05 08:12:26;;;;;;;3.53;2.25;;;3.30;99.90;;;;;;5093822;28;20024;-46
2022/01/05 08:14:51;;;;;;;6.43;2.40;;;3.30;99.90;;;;;;5093916;28;20036;-45
2022/01/05 08:17:18;;;;;;;6.45;2.25;;;3.20;99.90;;;;;;5093825;28;20074;-47
2022/01/05 08:19:44;;;;;;;12.27;2.22;;;3.20;99.90;;;;;;5093562;28;20031;-46
2022/01/05 08:22:10;;;;;;;9.43;3.17;;;3.20;99.90;;;;;;5093539;28;20441;-46
2022/01/05 08:24:35;;;;;;;10.88;3.05;;;3.30;99.90;;;;;;5093558;28;20050;-45
2022/01/05 08:27:01;;;;;;;5.85;2.33;;;3.30;99.90;;;;;;5093593;28;20032;-46
2022/01/05 08:29:26;;;;;;;7.25;2.58;;;3.20;99.90;;;;;;5093324;28;20028;-45
2022/01/05 08:31:52;;;;;;;7.70;2.85;;;3.30;99.90;;;;;;5093343;28;20035;-47
2022/01/05 08:34:18;;;;;;;4.30;2.40;;;3.30;99.90;;;;;;5093710;28;20032;-45
2022/01/05 08:36:43;;;;;;;9.82;2.28;;;3.30;99.90;;;;;;5093474;28;20610;-45
2022/01/05 08:39:09;;;;;;;8.75;3.03;;;3.30;99.90;;;;;;5093153;28;20102;-42
2022/01/05 08:41:34;;;;;;;5.85;2.35;;;3.40;99.90;;;;;;5093308;28;20024;-45
2022/01/05 08:44:00;;;;;;;11.27;2.78;;;3.50;99.90;;;;;;5089173;28;20043;-45
2022/01/05 08:46:26;;;;;;;9.57;3.22;;;3.50;99.90;;;;;;5064296;28;20016;-48
2022/01/05 08:48:51;;;;;;;14.02;3.80;;;3.60;99.90;;;;;;5093194;28;20032;-47
2022/01/05 08:51:17;;;;;;;7.70;2.55;;;3.50;99.90;;;;;;5088005;28;20028;-45
2022/01/05 08:53:42;;;;;;;6.45;2.30;;;3.60;99.90;;;;;;5073452;28;20047;-51
2022/01/05 08:56:08;;;;;;;6.43;2.50;;;3.60;99.90;;;;;;5076881;28;20032;-46
2022/01/05 08:58:34;;;;;;;6.57;2.40;;;3.60;99.90;;;;;;5069053;28;20107;-48
2022/01/05 09:01:00;;;;;;;6.82;2.15;;;4.20;99.90;;;;;;5087347;28;20032;-48
2022/01/05 09:03:25;;;;;;;6.72;2.55;;;4.90;99.90;;;;;;5092299;28;20055;-46
2022/01/05 09:05:52;;;;;;;8.65;2.53;;;5.60;99.90;;;;;;5091772;28;20043;-46
2022/01/05 09:08:17;;;;;;;11.98;2.92;;;6.30;99.90;;;;;;5092248;28;20024;-46
2022/01/05 09:10:45;;;;;;;9.35;2.22;;;6.70;99.90;;;;;;5090388;28;20093;-49
2022/01/05 09:13:11;;;;;;;9.40;2.08;;;6.90;99.90;;;;;;5091296;28;20028;-43
2022/01/05 09:15:37;;;;;;;11.10;2.85;;;7.20;99.70;;;;;;5092647;28;20517;-47
2022/01/05 09:18:03;;;;;;;13.18;2.60;;;7.40;98.80;;;;;;5092773;28;20028;-47
2022/01/05 09:20:29;;;;;;;5.45;2.22;;;7.80;98.60;;;;;;5073412;28;20480;-50
2022/01/05 09:22:55;;;;;;;7.32;2.30;;;8.20;97.70;;;;;;5075618;28;20037;-50
2022/01/05 09:25:23;;;;;;;5.13;1.83;;;8.40;96.90;;;;;;5088989;28;20183;-48
2022/01/05 09:27:50;;;;;;;6.57;2.10;;;8.70;96.50;;;;;;5078237;28;20476;-43
2022/01/05 09:30:16;;;;;;;7.30;2.55;;;9.00;95.70;;;;;;5091970;28;20344;-46
2022/01/05 09:32:43;;;;;;;13.00;3.92;;;9.10;95.10;;;;;;5092259;28;20017;-47
2022/01/05 09:35:12;;;;;;;7.10;2.17;;;8.80;95.10;;;;;;5092373;28;20024;-45
2022/01/05 09:37:50;;;;;;;8.77;2.13;;;8.90;95.30;;;;;;5092534;28;20103;-45
2022/01/05 09:43:00;;;;;;;6.28;2.10;;;9.30;94.80;;;;;;5091535;28;20036;-48
2022/01/05 09:45:28;;;;;;;6.32;2.35;;;9.50;93.30;;;;;;5092413;28;20024;-45
2022/01/05 09:48:28;;;;;;;6.55;2.33;;;9.50;93.70;;;;;;5092698;28;20053;-45
2022/01/05 09:51:12;;;;;;;7.85;2.95;;;9.70;92.70;;;;;;5091878;28;20012;-45
2022/01/05 09:53:38;;;;;;;7.38;1.98;;;9.20;93.00;;;;;;5091976;28;20039;-46
2022/01/05 09:56:06;;;;;;;6.18;2.15;;;9.20;93.40;;;;;;5091963;28;20032;-47
2022/01/05 09:58:32;;;;;;;5.22;2.03;;;9.30;94.00;;;;;;5092033;28;20028;-45
2022/01/05 10:00:59;;;;;;;13.07;2.78;;;9.20;93.20;;;;;;5073666;28;20032;-45
2022/01/05 10:03:25;;;;;;;15.57;3.38;;;8.90;94.00;;;;;;5090973;28;20027;-49
2022/01/05 10:05:51;;;;;;;9.63;2.03;;;8.50;94.20;;;;;;5092094;28;20480;-45
2022/01/05 10:08:18;;;;;;;13.80;3.25;;;8.20;94.70;;;;;;5092510;28;20099;-45
2022/01/05 10:10:43;;;;;;;11.90;2.35;;;8.10;95.40;;;;;;5074022;28;20085;-44
2022/01/05 10:13:09;;;;;;;17.23;2.33;;;7.80;95.80;;;;;;5092139;28;20507;-42
2022/01/05 10:15:36;;;;;;;11.82;2.20;;;7.80;96.40;;;;;;5092778;28;20024;-45
2022/01/05 10:18:12;;;;;;;7.35;2.08;;;7.60;96.70;;;;;;5092623;28;20024;-46
2022/01/05 10:21:14;;;;;;;10.40;2.75;;;7.40;96.50;;;;;;5092011;28;20035;-47
2022/01/05 10:23:48;;;;;;;11.98;2.47;;;7.10;97.70;;;;;;5029075;28;20038;-45
2022/01/05 10:26:29;;;;;;;6.20;2.35;;;6.70;98.40;;;;;;5082331;28;20089;-44
2022/01/05 10:28:59;;;;;;;6.75;2.35;;;6.40;99.30;;;;;;5091556;28;20016;-45
2022/01/05 10:31:30;;;;;;;8.95;2.60;;;6.20;99.90;;;;;;5073315;28;20032;-45
2022/01/05 10:33:57;;;;;;;7.20;2.17;;;6.00;99.90;;;;;;5084882;28;20052;-46
2022/01/05 10:36:23;;;;;;;8.13;2.03;;;5.70;99.90;;;;;;5092055;28;20032;-45
2022/01/05 10:38:54;;;;;;;7.68;2.33;;;5.50;99.90;;;;;;5071885;28;20028;-45
2022/01/05 10:41:22;;;;;;;11.90;2.55;;;5.40;99.90;;;;;;5070421;28;20052;-47
2022/01/05 10:44:07;;;;;;;6.72;2.22;;;5.20;99.90;;;;;;5082914;28;20024;-48
2022/01/05 10:46:41;;;;;;;6.50;2.65;;;5.30;99.90;;;;;;5091479;28;20032;-46
2022/01/05 10:49:07;;;;;;;7.90;2.65;;;5.30;99.90;;;;;;5085660;28;20029;-46
2022/01/05 10:51:34;;;;;;;10.93;2.60;;;5.30;99.90;;;;;;5070878;28;20419;-49
2022/01/05 10:54:12;;;;;;;8.32;2.38;;;5.30;99.90;;;;;;5070698;28;20111;-50
2022/01/05 10:56:37;;;;;;;7.90;2.10;;;5.40;99.90;;;;;;5081301;28;20031;-47
2022/01/05 10:59:03;;;;;;;8.15;2.15;;;5.30;99.90;;;;;;5085554;28;20047;-43
2022/01/05 11:01:30;;;;;;;9.43;2.17;;;5.20;99.90;;;;;;5072570;28;20075;-49
2022/01/05 11:03:56;;;;;;;7.28;2.45;;;5.20;99.90;;;;;;5083715;28;20035;-45
2022/01/05 11:06:21;;;;;;;10.93;2.10;;;5.20;99.90;;;;;;5083598;28;20024;-45
2022/01/05 11:09:04;;;;;;;6.05;2.05;;;5.10;99.90;;;;;;5091039;28;20043;-48
2022/01/05 11:11:41;;;;;;;10.82;2.42;;;5.00;99.90;;;;;;5090039;28;20028;-47
2022/01/05 11:14:08;;;;;;;9.82;2.30;;;4.90;99.90;;;;;;5090965;28;20028;-50
2022/01/05 11:16:37;;;;;;;11.82;2.42;;;4.90;99.90;;;;;;5090610;28;20077;-46
2022/01/05 11:19:17;;;;;;;13.25;3.10;;;4.90;99.90;;;;;;5090990;28;20400;-47
2022/01/05 11:22:04;;;;;;;9.65;2.65;;;5.00;99.90;;;;;;5072538;28;20077;-51
2022/01/05 11:24:39;;;;;;;9.13;2.35;;;4.90;99.90;;;;;;5085239;28;20543;-46
2022/01/05 11:27:07;;;;;;;9.90;2.65;;;4.90;99.90;;;;;;5072565;28;20028;-48
2022/01/05 11:29:34;;;;;;;12.43;2.85;;;4.90;99.90;;;;;;5076486;28;20028;-49
2022/01/05 11:32:02;;;;;;;6.13;2.15;;;4.90;99.90;;;;;;5090882;28;20051;-49
2022/01/05 11:34:29;;;;;;;6.30;2.17;;;4.90;99.90;;;;;;5088581;28;20448;-49
2022/01/05 11:36:55;;;;;;;7.57;2.17;;;4.90;99.90;;;;;;5090481;28;20036;-48
2022/01/05 11:39:21;;;;;;;5.57;1.92;;;4.90;99.90;;;;;;5093879;28;20102;-50
2022/01/05 11:41:49;;;;;;;13.20;2.90;;;4.90;99.90;;;;;;5093757;28;20024;-50
2022/01/05 11:44:17;;;;;;;5.57;2.28;;;5.00;99.90;;;;;;5089130;28;20020;-48
2022/01/05 11:46:45;;;;;;;6.97;1.90;;;5.00;99.90;;;;;;5086937;28;20364;-51
2022/01/05 11:49:14;;;;;;;3.53;2.08;;;4.90;99.90;;;;;;5090335;28;20097;-48
2022/01/05 11:51:42;;;;;;;6.78;2.30;;;5.00;99.90;;;;;;5094225;28;20027;-52
2022/01/05 11:54:15;;;;;;;9.27;2.10;;;5.00;99.90;;;;;;5094531;28;20028;-45
2022/01/05 11:56:44;;;;;;;8.07;2.42;;;5.00;99.90;;;;;;5094574;28;20034;-49
2022/01/05 11:59:33;;;;;;;6.57;2.33;;;5.00;99.90;;;;;;5093869;28;20376;-46
2022/01/05 12:02:17;;;;;;;9.05;1.98;;;5.00;99.90;;;;;;5094265;28;20031;-51
2022/01/05 12:04:52;;;;;;;7.25;3.15;;;5.00;99.90;;;;;;5094286;28;20506;-47
2022/01/05 12:07:35;;;;;;;19.90;6.13;;;5.00;99.90;;;;;;5094450;28;20031;-45
2022/01/05 12:10:09;;;;;;;9.18;2.25;;;5.00;99.90;;;;;;5093893;28;20107;-49
2022/01/05 12:12:36;;;;;;;3.07;1.60;;;5.00;99.90;;;;;;5094168;28;20013;-46
2022/01/05 12:15:03;;;;;;;9.65;2.75;;;5.00;99.90;;;;;;5094157;28;20230;-47
2022/01/05 12:17:29;;;;;;;11.57;2.33;;;5.00;99.90;;;;;;5094151;28;20020;-47
2022/01/05 12:19:55;;;;;;;11.55;2.15;;;5.00;99.90;;;;;;5093886;28;20078;-45
2022/01/05 12:22:30;;;;;;;6.68;2.00;;;5.00;99.90;;;;;;5093717;28;20054;-49
2022/01/05 12:25:05;;;;;;;9.02;1.92;;;5.00;99.90;;;;;;5093815;28;20035;-50
2022/01/05 12:27:32;;;;;;;10.13;3.15;;;5.00;99.90;;;;;;5092710;28;20023;-50
2022/01/05 12:29:59;;;;;;;4.43;1.85;;;5.00;99.90;;;;;;5093371;28;20016;-50
2022/01/05 12:32:31;;;;;;;8.50;2.30;;;5.00;99.90;;;;;;5093436;28;20028;-49
2022/01/05 12:34:59;;;;;;;4.03;2.22;;;5.00;99.90;;;;;;5093736;28;20434;-50
2022/01/05 12:37:38;;;;;;;10.15;3.35;;;5.00;99.90;;;;;;5093645;28;20040;-47
2022/01/05 12:40:37;;;;;;;6.28;1.95;;;4.90;99.90;;;;;;5093236;28;20028;-47
2022/01/05 12:43:09;;;;;;;5.32;1.73;;;4.90;99.90;;;;;;5093393;28;20024;-47
2022/01/05 12:45:43;;;;;;;3.25;1.73;;;4.90;99.90;;;;;;5093140;28;20063;-49
2022/01/05 12:48:43;;;;;;;8.13;2.58;;;4.90;99.90;;;;;;5093390;28;20038;-48
2022/01/05 12:51:13;;;;;;;10.15;2.22;;;4.90;99.90;;;;;;5092746;28;20081;-52
2022/01/05 12:54:19;;;;;;;12.45;2.92;;;4.90;99.90;;;;;;5092901;28;20555;-48
2022/01/05 12:56:52;;;;;;;13.23;2.13;;;4.90;99.90;;;;;;5093906;28;20044;-49
2022/01/05 12:59:23;;;;;;;8.10;3.17;;;4.90;99.90;;;;;;5075224;28;20414;-51
2022/01/05 13:01:53;;;;;;;13.93;2.08;;;4.90;99.90;;;;;;5093345;28;20024;-48